• Join FlightAware (Why Join?)
  • Login
  • US Flag 
03:08AM EDT


 

Airport Tracker/Info


-or-


 

Live Flight TrackerFlight Track Log ✈ N675MC ✈ 17-Sep-2013 ✈ KATL - KAGS

Flight Track Log - Related Links

Times and Time Zones

All times are in EDT time to prevent confusion due to time zone crossing. See the N675MC flight status page for this flight to view local times or setup timezone preferences in your user account.

Time Position Orientation Groundspeed Altitude Reporting Facility
EDT Latitude Longitude Course Direction KTS MPH feet Rate Location/Type
09:59PM 33.6333 -84.4000 86° East 159 183 2,300  Level Atlanta TRACON
10:00PM 33.6167 -84.3333 107° East 247 284 4,400 2,400 Climbing Atlanta TRACON
10:01PM 33.6249 -84.0874 92° East  Level FlightAware Approximate
10:01PM 33.6000 -84.2500 103° East 267 307 7,100  Level Atlanta TRACON
10:02PM 33.6123 -83.9748 90° East  Level Estimated
10:02PM 33.6106 -84.0614 86° East 285 328 10,500  Level Atlanta Center
10:03PM 33.5996 -83.8623 90° East  Level Estimated
10:03PM 33.6147 -83.9364 88° East 339 390 12,400  Level Atlanta Center
10:04PM 33.5868 -83.7498 86° East  Level Estimated
10:04PM 33.6167 -83.8094 89° East 372 428 14,700  Level Atlanta Center
10:05PM 33.6206 -83.6797 88° East 378 435 16,500 1,140 Climbing Atlanta Center
10:06PM 33.6306 -83.5447 85° East 396 456 17,000 240 Climbing Atlanta Center
10:07PM 33.6361 -83.4100 87° East 403 464 17,000 -240 Level Atlanta Center
10:08PM 33.6458 -83.2778 85° East 403 464 16,600 -900 Descending Atlanta Center
10:09PM 33.6553 -83.1403 85° East 409 471 15,200 -1,620 Descending Atlanta Center
10:10PM 33.6647 -83.0231 84° East 402 463 13,400 -1,920 Descending Atlanta Center
10:11PM 33.6719 -82.8956 86° East 391 450 11,400 -1,560 Descending Atlanta Center
10:12PM 33.6397 -82.7839 109° East 333 383 10,300 -1,200 Descending Atlanta Center
10:13PM 33.6053 -82.6919 114° Southeast 317 365 9,000 -1,440 Descending Atlanta Center
10:14PM 33.5731 -82.6078 115° Southeast 298 343 7,500 -1,500 Descending Atlanta Center
10:15PM 33.5406 -82.5236 115° Southeast 279 321 6,000 -1,440 Descending Atlanta Center
10:16PM 33.5147 -82.4517 113° Southeast 273 314 4,700 -1,260 Descending Atlanta Center
10:17PM 33.4867 -82.3775 114° Southeast 259 298 3,500 -900 Descending Atlanta Center
10:18PM 33.4564 -82.3058 117° Southeast 246 283 3,000 -540 Descending Atlanta Center
10:20PM 33.4303 -82.2018 107° East  Level FlightAware Approximate
10:27PM 33.3699 -81.9645 108° East  Level Estimated
10:28PM 33.3699 -81.9645 108° East  Level Estimated